sensor_id;sensor_type;location;lat;lon;timestamp;temperature;humidity
17918;DHT22;9084;50.956;3.106;2023-12-20T00:00:18;7.10;99.90
17918;DHT22;9084;50.956;3.106;2023-12-20T00:02:44;7.10;99.90
17918;DHT22;9084;50.956;3.106;2023-12-20T00:05:13;7.10;99.90
17918;DHT22;9084;50.956;3.106;2023-12-20T00:07:39;7.10;99.90
17918;DHT22;9084;50.956;3.106;2023-12-20T00:10:05;7.10;99.90
17918;DHT22;9084;50.956;3.106;2023-12-20T00:12:33;7.10;99.90
17918;DHT22;9084;50.956;3.106;2023-12-20T00:14:58;7.10;99.90
17918;DHT22;9084;50.956;3.106;2023-12-20T00:17:24;7.10;99.90
17918;DHT22;9084;50.956;3.106;2023-12-20T00:19:50;7.00;99.90
17918;DHT22;9084;50.956;3.106;2023-12-20T00:22:15;7.00;99.90
17918;DHT22;9084;50.956;3.106;2023-12-20T00:24:41;6.90;99.90
17918;DHT22;9084;50.956;3.106;2023-12-20T00:27:11;6.90;99.90
17918;DHT22;9084;50.956;3.106;2023-12-20T00:29:37;6.80;99.90
17918;DHT22;9084;50.956;3.106;2023-12-20T00:32:03;6.80;99.90
17918;DHT22;9084;50.956;3.106;2023-12-20T00:34:29;6.90;99.90
17918;DHT22;9084;50.956;3.106;2023-12-20T00:36:55;6.90;99.90
17918;DHT22;9084;50.956;3.106;2023-12-20T00:39:21;6.90;99.90
17918;DHT22;9084;50.956;3.106;2023-12-20T00:41:46;6.90;99.90
17918;DHT22;9084;50.956;3.106;2023-12-20T00:44:12;6.90;99.90
17918;DHT22;9084;50.956;3.106;2023-12-20T00:46:37;6.90;99.90
17918;DHT22;9084;50.956;3.106;2023-12-20T00:49:05;7.00;99.90
17918;DHT22;9084;50.956;3.106;2023-12-20T00:51:31;7.00;99.90
17918;DHT22;9084;50.956;3.106;2023-12-20T00:53:56;7.10;99.90
17918;DHT22;9084;50.956;3.106;2023-12-20T00:56:24;7.10;99.90
17918;DHT22;9084;50.956;3.106;2023-12-20T00:58:50;7.10;99.90
17918;DHT22;9084;50.956;3.106;2023-12-20T01:01:16;7.10;99.90
17918;DHT22;9084;50.956;3.106;2023-12-20T01:03:44;7.10;99.90
17918;DHT22;9084;50.956;3.106;2023-12-20T01:06:12;7.10;99.90
17918;DHT22;9084;50.956;3.106;2023-12-20T01:08:38;7.00;99.90
17918;DHT22;9084;50.956;3.106;2023-12-20T01:11:04;7.00;99.90
17918;DHT22;9084;50.956;3.106;2023-12-20T01:13:32;7.00;99.90
17918;DHT22;9084;50.956;3.106;2023-12-20T01:15:58;7.00;99.90
17918;DHT22;9084;50.956;3.106;2023-12-20T01:18:24;7.00;99.90
17918;DHT22;9084;50.956;3.106;2023-12-20T01:20:49;6.90;99.90
17918;DHT22;9084;50.956;3.106;2023-12-20T01:23:15;6.90;99.90
17918;DHT22;9084;50.956;3.106;2023-12-20T01:25:40;6.80;99.90
17918;DHT22;9084;50.956;3.106;2023-12-20T01:28:06;6.80;99.90
17918;DHT22;9084;50.956;3.106;2023-12-20T01:30:32;6.70;99.90
17918;DHT22;9084;50.956;3.106;2023-12-20T01:33:00;6.60;99.90
17918;DHT22;9084;50.956;3.106;2023-12-20T01:35:26;6.60;99.90
17918;DHT22;9084;50.956;3.106;2023-12-20T01:37:54;6.50;99.90
17918;DHT22;9084;50.956;3.106;2023-12-20T01:40:23;6.50;99.90
17918;DHT22;9084;50.956;3.106;2023-12-20T01:43:00;6.50;99.90
17918;DHT22;9084;50.956;3.106;2023-12-20T01:45:28;6.40;99.90
17918;DHT22;9084;50.956;3.106;2023-12-20T01:47:56;6.40;99.90
17918;DHT22;9084;50.956;3.106;2023-12-20T01:50:23;6.30;99.90
17918;DHT22;9084;50.956;3.106;2023-12-20T01:52:52;6.30;99.90
17918;DHT22;9084;50.956;3.106;2023-12-20T01:55:21;6.30;99.90
17918;DHT22;9084;50.956;3.106;2023-12-20T01:57:50;6.30;99.90
17918;DHT22;9084;50.956;3.106;2023-12-20T02:00:16;6.30;99.90
17918;DHT22;9084;50.956;3.106;2023-12-20T02:02:44;6.30;99.90
17918;DHT22;9084;50.956;3.106;2023-12-20T02:05:13;6.30;99.90
17918;DHT22;9084;50.956;3.106;2023-12-20T02:07:38;6.30;99.90
17918;DHT22;9084;50.956;3.106;2023-12-20T02:10:04;6.30;99.90
17918;DHT22;9084;50.956;3.106;2023-12-20T02:12:37;6.30;99.90
17918;DHT22;9084;50.956;3.106;2023-12-20T02:15:03;6.30;99.90
17918;DHT22;9084;50.956;3.106;2023-12-20T02:17:30;6.20;99.90
17918;DHT22;9084;50.956;3.106;2023-12-20T02:19:56;6.20;99.90
17918;DHT22;9084;50.956;3.106;2023-12-20T02:22:22;6.20;99.90
17918;DHT22;9084;50.956;3.106;2023-12-20T02:24:50;6.10;99.90
17918;DHT22;9084;50.956;3.106;2023-12-20T02:27:17;6.10;99.90
17918;DHT22;9084;50.956;3.106;2023-12-20T02:29:43;6.00;99.90
17918;DHT22;9084;50.956;3.106;2023-12-20T02:32:09;6.00;99.90
17918;DHT22;9084;50.956;3.106;2023-12-20T02:34:37;6.00;99.90
17918;DHT22;9084;50.956;3.106;2023-12-20T02:37:05;6.00;99.90
17918;DHT22;9084;50.956;3.106;2023-12-20T02:39:30;5.90;99.90
17918;DHT22;9084;50.956;3.106;2023-12-20T02:41:56;5.90;99.90
17918;DHT22;9084;50.956;3.106;2023-12-20T02:44:22;5.90;99.90
17918;DHT22;9084;50.956;3.106;2023-12-20T02:46:50;5.90;99.90
17918;DHT22;9084;50.956;3.106;2023-12-20T02:49:20;5.90;99.90
17918;DHT22;9084;50.956;3.106;2023-12-20T02:51:46;5.90;99.90
17918;DHT22;9084;50.956;3.106;2023-12-20T02:54:16;5.90;99.90
17918;DHT22;9084;50.956;3.106;2023-12-20T02:56:42;5.80;99.90
17918;DHT22;9084;50.956;3.106;2023-12-20T02:59:08;5.80;99.90
17918;DHT22;9084;50.956;3.106;2023-12-20T03:01:42;5.80;99.90
17918;DHT22;9084;50.956;3.106;2023-12-20T03:04:08;5.80;99.90
17918;DHT22;9084;50.956;3.106;2023-12-20T03:06:33;5.80;99.90
17918;DHT22;9084;50.956;3.106;2023-12-20T03:08:59;5.80;99.90
17918;DHT22;9084;50.956;3.106;2023-12-20T03:11:27;5.80;99.90
17918;DHT22;9084;50.956;3.106;2023-12-20T03:13:54;5.80;99.90
17918;DHT22;9084;50.956;3.106;2023-12-20T03:16:22;5.90;99.90
17918;DHT22;9084;50.956;3.106;2023-12-20T03:18:48;5.80;99.90
17918;DHT22;9084;50.956;3.106;2023-12-20T03:21:14;5.80;99.90
17918;DHT22;9084;50.956;3.106;2023-12-20T03:23:41;5.80;99.90
17918;DHT22;9084;50.956;3.106;2023-12-20T03:26:09;5.80;99.90
17918;DHT22;9084;50.956;3.106;2023-12-20T03:28:36;5.80;99.90
17918;DHT22;9084;50.956;3.106;2023-12-20T03:31:04;5.80;99.90
17918;DHT22;9084;50.956;3.106;2023-12-20T03:33:30;5.90;99.90
17918;DHT22;9084;50.956;3.106;2023-12-20T03:35:56;6.00;99.90
17918;DHT22;9084;50.956;3.106;2023-12-20T03:38:23;5.90;99.90
17918;DHT22;9084;50.956;3.106;2023-12-20T03:40:51;6.00;99.90
17918;DHT22;9084;50.956;3.106;2023-12-20T03:43:17;6.00;99.90
17918;DHT22;9084;50.956;3.106;2023-12-20T03:45:45;6.00;99.90
17918;DHT22;9084;50.956;3.106;2023-12-20T03:48:11;6.00;99.90
17918;DHT22;9084;50.956;3.106;2023-12-20T03:50:36;6.00;99.90
17918;DHT22;9084;50.956;3.106;2023-12-20T03:53:02;6.00;99.90
17918;DHT22;9084;50.956;3.106;2023-12-20T03:55:29;6.00;99.90
17918;DHT22;9084;50.956;3.106;2023-12-20T03:57:54;6.00;99.90
17918;DHT22;9084;50.956;3.106;2023-12-20T04:00:20;6.00;99.90
17918;DHT22;9084;50.956;3.106;2023-12-20T04:02:48;6.00;99.90
17918;DHT22;9084;50.956;3.106;2023-12-20T04:05:16;6.00;99.90
17918;DHT22;9084;50.956;3.106;2023-12-20T04:07:44;5.90;99.90
17918;DHT22;9084;50.956;3.106;2023-12-20T04:10:09;5.90;99.90
17918;DHT22;9084;50.956;3.106;2023-12-20T04:12:40;5.90;99.90
17918;DHT22;9084;50.956;3.106;2023-12-20T04:15:08;5.90;99.90
17918;DHT22;9084;50.956;3.106;2023-12-20T04:17:37;5.90;99.90
17918;DHT22;9084;50.956;3.106;2023-12-20T04:20:05;5.90;99.90
17918;DHT22;9084;50.956;3.106;2023-12-20T04:22:31;5.90;99.90
17918;DHT22;9084;50.956;3.106;2023-12-20T04:24:57;5.80;99.90
17918;DHT22;9084;50.956;3.106;2023-12-20T04:27:22;5.80;99.90
17918;DHT22;9084;50.956;3.106;2023-12-20T04:29:48;5.80;99.90
17918;DHT22;9084;50.956;3.106;2023-12-20T04:32:13;5.80;99.90
17918;DHT22;9084;50.956;3.106;2023-12-20T04:34:39;5.80;99.90
17918;DHT22;9084;50.956;3.106;2023-12-20T04:37:05;5.80;99.90
17918;DHT22;9084;50.956;3.106;2023-12-20T04:39:30;5.80;99.90
17918;DHT22;9084;50.956;3.106;2023-12-20T04:41:58;5.70;99.90
17918;DHT22;9084;50.956;3.106;2023-12-20T04:44:26;5.70;99.90
17918;DHT22;9084;50.956;3.106;2023-12-20T04:46:55;5.70;99.90
17918;DHT22;9084;50.956;3.106;2023-12-20T04:49:22;5.80;99.90
17918;DHT22;9084;50.956;3.106;2023-12-20T04:51:47;5.70;99.90
17918;DHT22;9084;50.956;3.106;2023-12-20T04:54:15;5.70;99.90
17918;DHT22;9084;50.956;3.106;2023-12-20T04:56:41;5.70;99.90
17918;DHT22;9084;50.956;3.106;2023-12-20T04:59:07;5.70;99.90
17918;DHT22;9084;50.956;3.106;2023-12-20T05:01:35;5.70;99.90
17918;DHT22;9084;50.956;3.106;2023-12-20T05:04:00;5.70;99.90
17918;DHT22;9084;50.956;3.106;2023-12-20T05:06:26;5.70;99.90
17918;DHT22;9084;50.956;3.106;2023-12-20T05:08:51;5.70;99.90
17918;DHT22;9084;50.956;3.106;2023-12-20T05:11:20;5.70;99.90
17918;DHT22;9084;50.956;3.106;2023-12-20T05:13:47;5.70;99.90
17918;DHT22;9084;50.956;3.106;2023-12-20T05:16:15;5.70;99.90
17918;DHT22;9084;50.956;3.106;2023-12-20T05:18:45;5.70;99.90
17918;DHT22;9084;50.956;3.106;2023-12-20T05:21:13;5.70;99.90
17918;DHT22;9084;50.956;3.106;2023-12-20T05:23:39;5.70;99.90
17918;DHT22;9084;50.956;3.106;2023-12-20T05:26:09;5.80;99.90
17918;DHT22;9084;50.956;3.106;2023-12-20T05:28:34;5.80;99.90
17918;DHT22;9084;50.956;3.106;2023-12-20T05:31:00;5.90;99.90
17918;DHT22;9084;50.956;3.106;2023-12-20T05:33:28;5.90;99.90
17918;DHT22;9084;50.956;3.106;2023-12-20T05:35:54;6.00;99.90
17918;DHT22;9084;50.956;3.106;2023-12-20T05:38:19;6.00;99.90
17918;DHT22;9084;50.956;3.106;2023-12-20T05:40:47;5.90;99.90
17918;DHT22;9084;50.956;3.106;2023-12-20T05:43:13;5.90;99.90
17918;DHT22;9084;50.956;3.106;2023-12-20T05:45:38;5.90;99.90
17918;DHT22;9084;50.956;3.106;2023-12-20T05:48:04;5.80;99.90
17918;DHT22;9084;50.956;3.106;2023-12-20T05:50:32;5.80;99.90
17918;DHT22;9084;50.956;3.106;2023-12-20T05:53:05;5.80;99.90
17918;DHT22;9084;50.956;3.106;2023-12-20T05:55:30;5.70;99.90
17918;DHT22;9084;50.956;3.106;2023-12-20T05:57:56;5.70;99.90
17918;DHT22;9084;50.956;3.106;2023-12-20T06:00:21;5.70;99.90
17918;DHT22;9084;50.956;3.106;2023-12-20T06:02:47;5.70;99.90
17918;DHT22;9084;50.956;3.106;2023-12-20T06:05:13;5.70;99.90
17918;DHT22;9084;50.956;3.106;2023-12-20T06:07:38;5.60;99.90
17918;DHT22;9084;50.956;3.106;2023-12-20T06:10:04;5.70;99.90
17918;DHT22;9084;50.956;3.106;2023-12-20T06:12:36;5.60;99.90
17918;DHT22;9084;50.956;3.106;2023-12-20T06:15:04;5.70;99.90
17918;DHT22;9084;50.956;3.106;2023-12-20T06:17:31;5.60;99.90
17918;DHT22;9084;50.956;3.106;2023-12-20T06:19:57;5.60;99.90
17918;DHT22;9084;50.956;3.106;2023-12-20T06:22:23;5.60;99.90
17918;DHT22;9084;50.956;3.106;2023-12-20T06:24:53;5.60;99.90
17918;DHT22;9084;50.956;3.106;2023-12-20T06:27:18;5.60;99.90
17918;DHT22;9084;50.956;3.106;2023-12-20T06:29:44;5.60;99.90
17918;DHT22;9084;50.956;3.106;2023-12-20T06:32:10;5.60;99.90
17918;DHT22;9084;50.956;3.106;2023-12-20T06:34:36;5.70;99.90
17918;DHT22;9084;50.956;3.106;2023-12-20T06:37:04;5.60;99.90
17918;DHT22;9084;50.956;3.106;2023-12-20T06:39:30;5.60;99.90
17918;DHT22;9084;50.956;3.106;2023-12-20T06:41:56;5.60;99.90
17918;DHT22;9084;50.956;3.106;2023-12-20T06:44:21;5.60;99.90
17918;DHT22;9084;50.956;3.106;2023-12-20T06:46:47;5.60;99.90
17918;DHT22;9084;50.956;3.106;2023-12-20T06:49:17;5.60;99.90
17918;DHT22;9084;50.956;3.106;2023-12-20T06:51:45;5.60;99.90
17918;DHT22;9084;50.956;3.106;2023-12-20T06:54:11;5.60;99.90
17918;DHT22;9084;50.956;3.106;2023-12-20T06:56:39;5.60;99.90
17918;DHT22;9084;50.956;3.106;2023-12-20T06:59:09;5.60;99.90
17918;DHT22;9084;50.956;3.106;2023-12-20T07:01:34;5.60;99.90
17918;DHT22;9084;50.956;3.106;2023-12-20T07:04:02;5.60;99.90
17918;DHT22;9084;50.956;3.106;2023-12-20T07:06:28;5.60;99.90
17918;DHT22;9084;50.956;3.106;2023-12-20T07:08:54;5.60;99.90
17918;DHT22;9084;50.956;3.106;2023-12-20T07:11:21;5.60;99.90
17918;DHT22;9084;50.956;3.106;2023-12-20T07:13:49;5.60;99.90
17918;DHT22;9084;50.956;3.106;2023-12-20T07:16:15;5.60;99.90
17918;DHT22;9084;50.956;3.106;2023-12-20T07:18:41;5.60;99.90
17918;DHT22;9084;50.956;3.106;2023-12-20T07:21:06;5.60;99.90
17918;DHT22;9084;50.956;3.106;2023-12-20T07:23:33;5.70;99.90
17918;DHT22;9084;50.956;3.106;2023-12-20T07:26:01;5.70;99.90
17918;DHT22;9084;50.956;3.106;2023-12-20T07:28:29;5.70;99.90
17918;DHT22;9084;50.956;3.106;2023-12-20T07:30:55;5.70;99.90
17918;DHT22;9084;50.956;3.106;2023-12-20T07:33:20;5.70;99.90
17918;DHT22;9084;50.956;3.106;2023-12-20T07:35:49;5.70;99.90
17918;DHT22;9084;50.956;3.106;2023-12-20T07:38:17;5.70;99.90
17918;DHT22;9084;50.956;3.106;2023-12-20T07:40:42;5.70;99.90
17918;DHT22;9084;50.956;3.106;2023-12-20T07:43:10;5.70;99.90
17918;DHT22;9084;50.956;3.106;2023-12-20T07:45:36;5.70;99.90
17918;DHT22;9084;50.956;3.106;2023-12-20T07:48:04;5.70;99.90
17918;DHT22;9084;50.956;3.106;2023-12-20T07:50:30;5.70;99.90
17918;DHT22;9084;50.956;3.106;2023-12-20T07:52:56;5.70;99.90
17918;DHT22;9084;50.956;3.106;2023-12-20T07:55:21;5.70;99.90
17918;DHT22;9084;50.956;3.106;2023-12-20T07:57:50;5.70;99.90
17918;DHT22;9084;50.956;3.106;2023-12-20T08:00:16;5.80;99.90
17918;DHT22;9084;50.956;3.106;2023-12-20T08:02:42;5.80;99.90
17918;DHT22;9084;50.956;3.106;2023-12-20T08:05:09;5.80;99.90
17918;DHT22;9084;50.956;3.106;2023-12-20T08:07:35;5.90;99.90
17918;DHT22;9084;50.956;3.106;2023-12-20T08:10:01;5.90;99.90
17918;DHT22;9084;50.956;3.106;2023-12-20T08:12:26;6.00;99.90
17918;DHT22;9084;50.956;3.106;2023-12-20T08:14:53;6.10;99.90
17918;DHT22;9084;50.956;3.106;2023-12-20T08:17:22;6.20;99.90
17918;DHT22;9084;50.956;3.106;2023-12-20T08:19:50;6.20;99.90
17918;DHT22;9084;50.956;3.106;2023-12-20T08:22:18;6.30;99.90
17918;DHT22;9084;50.956;3.106;2023-12-20T08:24:44;6.30;99.90
17918;DHT22;9084;50.956;3.106;2023-12-20T08:27:09;6.40;99.90
17918;DHT22;9084;50.956;3.106;2023-12-20T08:29:35;6.50;99.90
17918;DHT22;9084;50.956;3.106;2023-12-20T08:32:01;6.60;99.90
17918;DHT22;9084;50.956;3.106;2023-12-20T08:34:27;6.60;99.90
17918;DHT22;9084;50.956;3.106;2023-12-20T08:36:53;6.70;99.90
17918;DHT22;9084;50.956;3.106;2023-12-20T08:39:19;6.80;99.90
17918;DHT22;9084;50.956;3.106;2023-12-20T08:41:44;6.80;99.90
17918;DHT22;9084;50.956;3.106;2023-12-20T08:44:10;6.80;99.90
17918;DHT22;9084;50.956;3.106;2023-12-20T08:46:38;6.90;99.90
17918;DHT22;9084;50.956;3.106;2023-12-20T08:49:06;7.00;99.90
17918;DHT22;9084;50.956;3.106;2023-12-20T08:51:34;7.00;99.90
17918;DHT22;9084;50.956;3.106;2023-12-20T08:53:59;7.10;99.90
17918;DHT22;9084;50.956;3.106;2023-12-20T08:56:25;7.10;99.90
17918;DHT22;9084;50.956;3.106;2023-12-20T08:58:51;7.10;99.90
17918;DHT22;9084;50.956;3.106;2023-12-20T09:01:16;7.10;99.90
17918;DHT22;9084;50.956;3.106;2023-12-20T09:03:42;7.10;99.90
17918;DHT22;9084;50.956;3.106;2023-12-20T09:06:08;7.10;99.90
17918;DHT22;9084;50.956;3.106;2023-12-20T09:08:34;7.10;99.90
17918;DHT22;9084;50.956;3.106;2023-12-20T09:10:59;7.10;99.90
17918;DHT22;9084;50.956;3.106;2023-12-20T09:13:28;7.10;99.90
17918;DHT22;9084;50.956;3.106;2023-12-20T09:15:55;7.20;99.90
17918;DHT22;9084;50.956;3.106;2023-12-20T09:18:23;7.30;99.90
17918;DHT22;9084;50.956;3.106;2023-12-20T09:20:49;7.30;99.90
17918;DHT22;9084;50.956;3.106;2023-12-20T09:23:15;7.40;99.90
17918;DHT22;9084;50.956;3.106;2023-12-20T09:25:41;7.50;99.90
17918;DHT22;9084;50.956;3.106;2023-12-20T09:28:09;7.60;99.90
17918;DHT22;9084;50.956;3.106;2023-12-20T09:30:34;7.60;99.90
17918;DHT22;9084;50.956;3.106;2023-12-20T09:33:05;7.60;99.90
17918;DHT22;9084;50.956;3.106;2023-12-20T09:35:32;7.70;99.90
17918;DHT22;9084;50.956;3.106;2023-12-20T09:37:58;7.70;99.90
17918;DHT22;9084;50.956;3.106;2023-12-20T09:40:26;7.80;99.90
17918;DHT22;9084;50.956;3.106;2023-12-20T09:43:03;7.90;99.90
17918;DHT22;9084;50.956;3.106;2023-12-20T09:45:31;7.90;99.90
17918;DHT22;9084;50.956;3.106;2023-12-20T09:47:57;8.00;99.90
17918;DHT22;9084;50.956;3.106;2023-12-20T09:50:23;8.10;99.90
17918;DHT22;9084;50.956;3.106;2023-12-20T09:52:53;8.10;99.90
17918;DHT22;9084;50.956;3.106;2023-12-20T09:55:20;8.20;99.90
17918;DHT22;9084;50.956;3.106;2023-12-20T09:57:49;8.20;99.90
17918;DHT22;9084;50.956;3.106;2023-12-20T10:00:17;8.30;99.90
17918;DHT22;9084;50.956;3.106;2023-12-20T10:02:52;8.30;99.90
17918;DHT22;9084;50.956;3.106;2023-12-20T10:05:29;8.40;99.90
17918;DHT22;9084;50.956;3.106;2023-12-20T10:07:55;8.40;99.90
17918;DHT22;9084;50.956;3.106;2023-12-20T10:10:22;8.50;99.90
17918;DHT22;9084;50.956;3.106;2023-12-20T10:13:08;8.50;99.90
17918;DHT22;9084;50.956;3.106;2023-12-20T10:15:37;8.60;99.90
17918;DHT22;9084;50.956;3.106;2023-12-20T10:18:04;8.60;99.90
17918;DHT22;9084;50.956;3.106;2023-12-20T10:20:31;8.60;99.90
17918;DHT22;9084;50.956;3.106;2023-12-20T10:22:57;8.70;99.90
17918;DHT22;9084;50.956;3.106;2023-12-20T10:25:24;8.80;99.90
17918;DHT22;9084;50.956;3.106;2023-12-20T10:28:15;8.90;99.90
17918;DHT22;9084;50.956;3.106;2023-12-20T10:30:46;8.90;99.90
17918;DHT22;9084;50.956;3.106;2023-12-20T10:33:15;9.00;99.90
17918;DHT22;9084;50.956;3.106;2023-12-20T10:35:48;9.00;99.90
17918;DHT22;9084;50.956;3.106;2023-12-20T10:38:16;9.00;99.90
17918;DHT22;9084;50.956;3.106;2023-12-20T10:40:42;9.00;99.90
17918;DHT22;9084;50.956;3.106;2023-12-20T10:43:08;9.00;99.90
17918;DHT22;9084;50.956;3.106;2023-12-20T10:45:37;9.10;99.90
17918;DHT22;9084;50.956;3.106;2023-12-20T10:48:03;9.20;99.90
17918;DHT22;9084;50.956;3.106;2023-12-20T10:50:30;9.20;99.90
17918;DHT22;9084;50.956;3.106;2023-12-20T10:52:59;9.20;99.90
17918;DHT22;9084;50.956;3.106;2023-12-20T10:55:25;9.20;99.90
17918;DHT22;9084;50.956;3.106;2023-12-20T10:57:51;9.20;99.90
17918;DHT22;9084;50.956;3.106;2023-12-20T11:00:23;9.20;99.90
17918;DHT22;9084;50.956;3.106;2023-12-20T11:02:51;9.20;99.90
17918;DHT22;9084;50.956;3.106;2023-12-20T11:05:33;9.20;99.90
17918;DHT22;9084;50.956;3.106;2023-12-20T11:08:44;9.20;99.90
17918;DHT22;9084;50.956;3.106;2023-12-20T11:11:20;9.20;99.90
17918;DHT22;9084;50.956;3.106;2023-12-20T11:13:54;9.30;99.90
17918;DHT22;9084;50.956;3.106;2023-12-20T11:16:20;9.30;99.90
17918;DHT22;9084;50.956;3.106;2023-12-20T11:18:50;9.30;99.90
17918;DHT22;9084;50.956;3.106;2023-12-20T11:21:19;9.40;99.90
17918;DHT22;9084;50.956;3.106;2023-12-20T11:23:45;9.40;99.90
17918;DHT22;9084;50.956;3.106;2023-12-20T11:26:11;9.40;99.90
17918;DHT22;9084;50.956;3.106;2023-12-20T11:28:36;9.50;99.90
17918;DHT22;9084;50.956;3.106;2023-12-20T11:31:05;9.50;99.90
17918;DHT22;9084;50.956;3.106;2023-12-20T11:33:36;9.60;99.90
17918;DHT22;9084;50.956;3.106;2023-12-20T11:36:02;9.60;99.90
17918;DHT22;9084;50.956;3.106;2023-12-20T11:38:36;9.70;99.90
17918;DHT22;9084;50.956;3.106;2023-12-20T11:41:05;9.70;99.90
17918;DHT22;9084;50.956;3.106;2023-12-20T11:43:34;9.80;99.90
17918;DHT22;9084;50.956;3.106;2023-12-20T11:48:31;9.80;99.90
17918;DHT22;9084;50.956;3.106;2023-12-20T11:50:57;9.90;99.90
17918;DHT22;9084;50.956;3.106;2023-12-20T11:53:25;9.90;99.90
17918;DHT22;9084;50.956;3.106;2023-12-20T11:55:51;9.90;99.90
17918;DHT22;9084;50.956;3.106;2023-12-20T11:58:18;9.90;99.90
17918;DHT22;9084;50.956;3.106;2023-12-20T12:00:44;9.80;99.90
17918;DHT22;9084;50.956;3.106;2023-12-20T12:03:10;9.80;99.90
17918;DHT22;9084;50.956;3.106;2023-12-20T12:05:35;9.80;99.90
17918;DHT22;9084;50.956;3.106;2023-12-20T12:08:04;9.90;99.90
17918;DHT22;9084;50.956;3.106;2023-12-20T12:10:33;9.90;99.90
17918;DHT22;9084;50.956;3.106;2023-12-20T12:12:59;9.90;99.90
17918;DHT22;9084;50.956;3.106;2023-12-20T12:15:26;9.90;99.90
17918;DHT22;9084;50.956;3.106;2023-12-20T12:17:56;9.90;99.90
17918;DHT22;9084;50.956;3.106;2023-12-20T12:20:23;9.80;99.90
17918;DHT22;9084;50.956;3.106;2023-12-20T12:23:04;9.70;99.90
17918;DHT22;9084;50.956;3.106;2023-12-20T12:25:31;9.70;99.90
17918;DHT22;9084;50.956;3.106;2023-12-20T12:28:01;9.60;99.90
17918;DHT22;9084;50.956;3.106;2023-12-20T12:30:27;9.60;99.90
17918;DHT22;9084;50.956;3.106;2023-12-20T12:32:56;9.50;99.90
17918;DHT22;9084;50.956;3.106;2023-12-20T12:35:22;9.50;99.90
17918;DHT22;9084;50.956;3.106;2023-12-20T12:37:47;9.50;99.90
17918;DHT22;9084;50.956;3.106;2023-12-20T12:40:19;9.50;99.90
17918;DHT22;9084;50.956;3.106;2023-12-20T12:42:48;9.50;99.90
17918;DHT22;9084;50.956;3.106;2023-12-20T12:45:14;9.60;99.90
17918;DHT22;9084;50.956;3.106;2023-12-20T12:47:42;9.60;99.90
17918;DHT22;9084;50.956;3.106;2023-12-20T12:50:10;9.70;99.90
17918;DHT22;9084;50.956;3.106;2023-12-20T12:52:36;9.90;99.90
17918;DHT22;9084;50.956;3.106;2023-12-20T12:55:04;10.00;99.90
17918;DHT22;9084;50.956;3.106;2023-12-20T12:57:32;10.10;99.90
17918;DHT22;9084;50.956;3.106;2023-12-20T12:59:59;10.10;99.90
17918;DHT22;9084;50.956;3.106;2023-12-20T13:02:27;10.20;99.90
17918;DHT22;9084;50.956;3.106;2023-12-20T13:04:52;10.30;99.90
17918;DHT22;9084;50.956;3.106;2023-12-20T13:07:20;10.30;99.90
17918;DHT22;9084;50.956;3.106;2023-12-20T13:09:46;10.40;99.90
17918;DHT22;9084;50.956;3.106;2023-12-20T13:12:12;10.40;99.90
17918;DHT22;9084;50.956;3.106;2023-12-20T13:14:40;10.40;99.90
17918;DHT22;9084;50.956;3.106;2023-12-20T13:17:06;10.50;99.90
17918;DHT22;9084;50.956;3.106;2023-12-20T13:19:33;10.40;99.90
17918;DHT22;9084;50.956;3.106;2023-12-20T13:21:58;10.40;99.90
17918;DHT22;9084;50.956;3.106;2023-12-20T13:24:27;10.40;99.90
17918;DHT22;9084;50.956;3.106;2023-12-20T13:26:52;10.40;99.90
17918;DHT22;9084;50.956;3.106;2023-12-20T13:29:18;10.40;99.90
17918;DHT22;9084;50.956;3.106;2023-12-20T13:31:44;10.30;99.90
17918;DHT22;9084;50.956;3.106;2023-12-20T13:34:09;10.30;99.90
17918;DHT22;9084;50.956;3.106;2023-12-20T13:36:35;10.30;99.90
17918;DHT22;9084;50.956;3.106;2023-12-20T13:39:06;10.30;99.90
17918;DHT22;9084;50.956;3.106;2023-12-20T13:41:32;10.30;99.90
17918;DHT22;9084;50.956;3.106;2023-12-20T13:44:00;10.30;99.90
17918;DHT22;9084;50.956;3.106;2023-12-20T13:46:29;10.20;99.90
17918;DHT22;9084;50.956;3.106;2023-12-20T13:48:59;10.20;99.90
17918;DHT22;9084;50.956;3.106;2023-12-20T13:51:30;10.20;99.90
17918;DHT22;9084;50.956;3.106;2023-12-20T13:53:58;10.20;99.90
17918;DHT22;9084;50.956;3.106;2023-12-20T13:56:25;10.20;99.90
17918;DHT22;9084;50.956;3.106;2023-12-20T13:58:50;10.20;99.90
17918;DHT22;9084;50.956;3.106;2023-12-20T14:01:16;10.20;99.90
17918;DHT22;9084;50.956;3.106;2023-12-20T14:03:45;10.20;99.90
17918;DHT22;9084;50.956;3.106;2023-12-20T14:06:13;10.20;99.90
17918;DHT22;9084;50.956;3.106;2023-12-20T14:08:40;10.20;99.90
17918;DHT22;9084;50.956;3.106;2023-12-20T14:11:11;10.20;99.90
17918;DHT22;9084;50.956;3.106;2023-12-20T14:13:38;10.20;99.90
17918;DHT22;9084;50.956;3.106;2023-12-20T14:16:04;10.20;99.90
17918;DHT22;9084;50.956;3.106;2023-12-20T14:18:33;10.20;99.90
17918;DHT22;9084;50.956;3.106;2023-12-20T14:20:58;10.20;99.90
17918;DHT22;9084;50.956;3.106;2023-12-20T14:23:24;10.20;99.90
17918;DHT22;9084;50.956;3.106;2023-12-20T14:25:49;10.20;99.90
17918;DHT22;9084;50.956;3.106;2023-12-20T14:28:17;10.20;99.90
17918;DHT22;9084;50.956;3.106;2023-12-20T14:30:43;10.20;99.90
17918;DHT22;9084;50.956;3.106;2023-12-20T14:33:13;10.20;99.90
17918;DHT22;9084;50.956;3.106;2023-12-20T14:35:39;10.20;99.90
17918;DHT22;9084;50.956;3.106;2023-12-20T14:38:06;10.10;99.90
17918;DHT22;9084;50.956;3.106;2023-12-20T14:40:31;10.10;99.90
17918;DHT22;9084;50.956;3.106;2023-12-20T14:42:57;10.10;99.90
17918;DHT22;9084;50.956;3.106;2023-12-20T14:45:23;10.00;99.90
17918;DHT22;9084;50.956;3.106;2023-12-20T14:47:51;10.00;99.90
17918;DHT22;9084;50.956;3.106;2023-12-20T14:50:16;10.00;99.90
17918;DHT22;9084;50.956;3.106;2023-12-20T14:52:45;9.90;99.90
17918;DHT22;9084;50.956;3.106;2023-12-20T14:55:11;9.90;99.90
17918;DHT22;9084;50.956;3.106;2023-12-20T14:57:36;9.80;99.90
17918;DHT22;9084;50.956;3.106;2023-12-20T15:00:02;9.80;99.90
17918;DHT22;9084;50.956;3.106;2023-12-20T15:02:28;9.80;99.90
17918;DHT22;9084;50.956;3.106;2023-12-20T15:04:54;9.80;99.90
17918;DHT22;9084;50.956;3.106;2023-12-20T15:07:19;9.80;99.90
17918;DHT22;9084;50.956;3.106;2023-12-20T15:09:45;9.80;99.90
17918;DHT22;9084;50.956;3.106;2023-12-20T15:12:12;9.70;99.90
17918;DHT22;9084;50.956;3.106;2023-12-20T15:14:38;9.70;99.90
17918;DHT22;9084;50.956;3.106;2023-12-20T15:17:04;9.80;99.90
17918;DHT22;9084;50.956;3.106;2023-12-20T15:19:33;9.70;99.90
17918;DHT22;9084;50.956;3.106;2023-12-20T15:22:00;9.70;99.90
17918;DHT22;9084;50.956;3.106;2023-12-20T15:24:26;9.70;99.90
17918;DHT22;9084;50.956;3.106;2023-12-20T15:27:06;9.70;99.90
17918;DHT22;9084;50.956;3.106;2023-12-20T15:29:32;9.70;99.90
17918;DHT22;9084;50.956;3.106;2023-12-20T15:31:58;9.70;99.90
17918;DHT22;9084;50.956;3.106;2023-12-20T15:34:23;9.70;99.90
17918;DHT22;9084;50.956;3.106;2023-12-20T15:36:49;9.70;99.90
17918;DHT22;9084;50.956;3.106;2023-12-20T15:39:15;9.70;99.90
17918;DHT22;9084;50.956;3.106;2023-12-20T15:41:40;9.60;99.90
17918;DHT22;9084;50.956;3.106;2023-12-20T15:44:06;9.60;99.90
17918;DHT22;9084;50.956;3.106;2023-12-20T15:46:34;9.60;99.90
17918;DHT22;9084;50.956;3.106;2023-12-20T15:49:02;9.60;99.90
17918;DHT22;9084;50.956;3.106;2023-12-20T15:51:30;9.60;99.90
17918;DHT22;9084;50.956;3.106;2023-12-20T15:53:56;9.60;99.90
17918;DHT22;9084;50.956;3.106;2023-12-20T15:56:22;9.60;99.90
17918;DHT22;9084;50.956;3.106;2023-12-20T15:58:48;9.60;99.90
17918;DHT22;9084;50.956;3.106;2023-12-20T16:01:14;9.60;99.90